Time;durP1;ratioP1;P1;durP2;ratioP2;P2;SDS_P1;SDS_P2;PMS_P1;PMS_P2;Temp;Humidity;BMP_temperature;BMP_pressure;BME280_temperature;BME280_humidity;BME280_pressure;Samples;Min_cycle;Max_cycle;Signal;HPM_P1;HPM_P2
2022/01/07 00:02:03;;;;;;;16.80;8.87;;;;;;;2.35;65.68;96934.88;5074795;28;20579;-71
2022/01/07 00:04:31;;;;;;;16.53;10.03;;;;;;;2.26;65.92;96931.22;5075102;28;20179;-71
2022/01/07 00:06:57;;;;;;;12.90;9.03;;;;;;;2.41;65.19;96929.28;5073403;28;20500;-72
2022/01/07 00:09:22;;;;;;;17.00;9.70;;;;;;;2.44;64.95;96925.66;5074508;28;20440;-71
2022/01/07 00:11:48;;;;;;;17.73;9.93;;;;;;;2.45;64.88;96929.91;5064554;28;20229;-71
2022/01/07 00:14:14;;;;;;;14.70;10.13;;;;;;;2.48;64.69;96927.09;5065463;28;20189;-72
2022/01/07 00:16:39;;;;;;;18.40;9.70;;;;;;;2.45;64.80;96919.56;5073661;28;20268;-70
2022/01/07 00:19:05;;;;;;;16.23;9.37;;;;;;;2.43;64.62;96906.75;5074451;28;20193;-70
2022/01/07 00:21:30;;;;;;;17.90;9.50;;;;;;;2.48;64.40;96918.50;5074490;28;20202;-72
2022/01/07 00:23:56;;;;;;;15.00;9.07;;;;;;;2.48;64.36;96903.81;5065751;28;20235;-72
2022/01/07 00:26:21;;;;;;;14.03;9.70;;;;;;;2.46;64.73;96909.09;5069547;28;20175;-72
2022/01/07 00:28:47;;;;;;;17.50;9.27;;;;;;;2.33;65.30;96905.75;5070197;28;20672;-72
2022/01/07 00:31:13;;;;;;;15.50;9.93;;;;;;;2.08;65.20;96906.63;5071688;28;20198;-71
2022/01/07 00:33:38;;;;;;;20.00;9.97;;;;;;;2.22;64.94;96906.50;5067573;28;20182;-73
2022/01/07 00:36:04;;;;;;;18.20;9.73;;;;;;;2.24;64.89;96894.28;5074161;28;20206;-73
2022/01/07 00:38:30;;;;;;;16.70;8.33;;;;;;;2.21;65.15;96893.66;5066026;28;20178;-71
2022/01/07 00:40:56;;;;;;;18.23;9.20;;;;;;;2.22;65.25;96892.72;5073847;28;20245;-71
2022/01/07 00:43:22;;;;;;;21.27;9.13;;;;;;;2.20;65.02;96892.03;5074213;28;20181;-72
2022/01/07 00:45:47;;;;;;;14.97;8.60;;;;;;;2.15;64.86;96887.16;5073175;28;20493;-71
2022/01/07 00:48:13;;;;;;;18.63;9.30;;;;;;;2.26;64.61;96884.66;5073353;28;20265;-72
2022/01/07 00:50:39;;;;;;;17.70;8.57;;;;;;;2.29;64.54;96897.34;5073551;28;20194;-70
2022/01/07 00:53:04;;;;;;;13.67;8.20;;;;;;;2.30;64.03;96893.84;5065561;28;20187;-72
2022/01/07 00:55:30;;;;;;;23.27;8.77;;;;;;;2.20;64.23;96895.41;5067073;28;20175;-71
2022/01/07 00:57:58;;;;;;;11.90;8.10;;;;;;;2.26;64.05;96889.81;5071117;28;20175;-71
2022/01/07 01:00:26;;;;;;;13.27;7.70;;;;;;;2.28;64.41;96889.72;5071754;28;20504;-71
2022/01/07 01:02:55;;;;;;;15.63;8.40;;;;;;;2.26;64.16;96888.97;5071272;28;20641;-71
2022/01/07 01:05:21;;;;;;;13.43;8.60;;;;;;;2.30;63.83;96891.25;5074308;28;20436;-72
2022/01/07 01:07:46;;;;;;;16.63;9.00;;;;;;;2.29;63.62;96887.00;5075570;28;20457;-72
2022/01/07 01:10:13;;;;;;;13.17;8.57;;;;;;;2.29;63.74;96884.41;5074229;28;20428;-71
2022/01/07 01:12:42;;;;;;;13.53;8.20;;;;;;;2.32;63.61;96875.63;5075897;28;20206;-71
2022/01/07 01:15:09;;;;;;;13.23;8.47;;;;;;;2.28;63.65;96880.19;5074469;28;20424;-72
2022/01/07 01:17:35;;;;;;;13.70;9.27;;;;;;;2.34;63.57;96873.75;5075961;28;20417;-70
2022/01/07 01:20:05;;;;;;;14.43;8.60;;;;;;;2.32;63.61;96872.22;5057208;28;20848;-69
2022/01/07 01:22:31;;;;;;;13.17;8.47;;;;;;;2.26;63.41;96878.66;5069379;28;20203;-69
2022/01/07 01:24:57;;;;;;;17.97;9.40;;;;;;;2.23;63.83;96871.09;5071800;28;20957;-69
2022/01/07 01:27:22;;;;;;;18.70;9.47;;;;;;;2.24;63.65;96868.41;5075683;28;20511;-68
2022/01/07 01:29:48;;;;;;;13.73;9.80;;;;;;;2.28;63.63;96866.44;5067685;28;20190;-70
2022/01/07 01:32:16;;;;;;;15.33;8.70;;;;;;;2.23;63.98;96873.69;5067638;28;20206;-68
2022/01/07 01:34:42;;;;;;;17.17;8.60;;;;;;;2.21;63.81;96873.81;5075207;28;20177;-70
2022/01/07 01:37:07;;;;;;;15.37;8.70;;;;;;;2.22;63.99;96862.53;5075353;28;20412;-69
2022/01/07 01:39:33;;;;;;;15.30;9.80;;;;;;;2.22;64.02;96870.28;5075065;28;20424;-69
2022/01/07 01:41:58;;;;;;;12.83;8.80;;;;;;;2.17;63.96;96864.59;5084919;28;20291;-72
2022/01/07 01:44:24;;;;;;;20.63;9.17;;;;;;;2.23;64.02;96861.59;5088526;28;20757;-69
2022/01/07 01:46:50;;;;;;;13.57;9.27;;;;;;;2.20;63.79;96854.03;5085138;28;20197;-69
2022/01/07 01:49:15;;;;;;;16.63;9.47;;;;;;;2.15;64.20;96850.94;5074581;28;20185;-70
2022/01/07 01:51:41;;;;;;;16.20;9.03;;;;;;;2.22;64.35;96856.50;5074694;28;20281;-70
2022/01/07 01:54:07;;;;;;;13.50;9.87;;;;;;;2.22;63.96;96844.41;5067014;28;20520;-69
2022/01/07 01:56:33;;;;;;;18.80;9.80;;;;;;;2.25;64.02;96845.97;5073914;28;20175;-69
2022/01/07 01:58:58;;;;;;;20.47;10.20;;;;;;;2.22;64.31;96846.16;5073361;28;20182;-69
2022/01/07 02:01:24;;;;;;;15.03;9.63;;;;;;;1.80;65.12;96854.25;5074645;28;20482;-69
2022/01/07 02:03:50;;;;;;;19.80;10.77;;;;;;;1.99;65.08;96849.47;5063445;28;20174;-68
2022/01/07 02:06:15;;;;;;;14.90;9.90;;;;;;;2.08;64.34;96840.22;5074049;28;20208;-70
2022/01/07 02:08:41;;;;;;;24.87;9.83;;;;;;;2.13;64.35;96835.56;5074358;28;20336;-70
2022/01/07 02:11:07;;;;;;;19.57;10.03;;;;;;;2.11;64.21;96828.84;5074210;28;20210;-70
2022/01/07 02:13:33;;;;;;;21.43;10.63;;;;;;;1.71;65.34;96822.09;5075062;28;20522;-69
2022/01/07 02:15:59;;;;;;;14.80;9.70;;;;;;;1.65;65.73;96820.78;5073762;28;20810;-70
2022/01/07 02:18:24;;;;;;;23.27;11.77;;;;;;;1.83;65.49;96825.59;5074734;28;20602;-69
2022/01/07 02:20:50;;;;;;;16.70;10.63;;;;;;;2.01;65.02;96825.25;5071129;28;20478;-68
2022/01/07 02:23:18;;;;;;;18.20;10.40;;;;;;;2.10;64.36;96816.84;5065071;28;20208;-70
2022/01/07 02:25:45;;;;;;;19.87;10.10;;;;;;;2.12;63.71;96823.56;5073994;28;20179;-68
2022/01/07 02:28:12;;;;;;;20.57;10.40;;;;;;;2.12;64.10;96812.41;5054843;28;20457;-69
2022/01/07 02:30:38;;;;;;;17.90;9.50;;;;;;;2.19;63.36;96811.00;5073583;28;20421;-69
2022/01/07 02:33:03;;;;;;;18.40;9.00;;;;;;;2.15;63.55;96819.91;5065874;28;20935;-69
2022/01/07 02:35:31;;;;;;;18.23;9.40;;;;;;;2.13;63.47;96812.28;5073692;28;20217;-69
2022/01/07 02:37:57;;;;;;;21.00;10.10;;;;;;;2.20;63.21;96807.50;5074176;28;20555;-70
2022/01/07 02:40:23;;;;;;;14.07;8.50;;;;;;;2.23;63.24;96812.47;5072528;28;20430;-69
2022/01/07 02:42:49;;;;;;;14.10;8.20;;;;;;;2.19;63.21;96816.19;5073467;28;20424;-70
2022/01/07 02:45:15;;;;;;;14.43;9.00;;;;;;;2.24;63.54;96808.94;5073319;28;20942;-70
2022/01/07 02:47:55;;;;;;;16.67;10.87;;;;;;;2.19;63.47;96810.22;5072398;28;20188;-69
2022/01/07 02:50:30;;;;;;;13.00;9.07;;;;;;;2.13;63.70;96812.28;5072986;28;20409;-70
2022/01/07 02:52:56;;;;;;;16.67;9.00;;;;;;;1.82;64.24;96800.69;5068395;28;20412;-69
2022/01/07 02:55:23;;;;;;;14.67;9.00;;;;;;;2.00;63.99;96814.09;5072199;28;20448;-70
2022/01/07 02:57:49;;;;;;;17.87;9.20;;;;;;;1.76;64.32;96806.31;5072906;28;20474;-69
2022/01/07 03:00:17;;;;;;;13.33;9.03;;;;;;;1.93;63.57;96805.94;5071846;28;20425;-71
2022/01/07 03:02:43;;;;;;;14.97;8.90;;;;;;;1.97;63.74;96807.38;5066865;28;20517;-70
2022/01/07 03:05:09;;;;;;;12.27;7.53;;;;;;;1.97;63.37;96804.78;5061200;28;20423;-70
2022/01/07 03:07:35;;;;;;;13.90;8.50;;;;;;;1.94;63.78;96807.59;5071712;28;20906;-70
2022/01/07 03:10:01;;;;;;;20.90;8.87;;;;;;;1.76;64.23;96803.72;5070938;28;20772;-70
2022/01/07 03:12:26;;;;;;;14.37;8.43;;;;;;;1.86;63.42;96807.31;5070151;28;20455;-67
2022/01/07 03:14:52;;;;;;;14.03;7.13;;;;;;;1.89;63.50;96808.84;5071632;28;20637;-69
2022/01/07 03:17:17;;;;;;;14.70;7.93;;;;;;;1.81;63.29;96799.03;5070251;28;20179;-69
2022/01/07 03:19:43;;;;;;;15.23;8.77;;;;;;;1.41;64.99;96804.38;5071569;28;20655;-70
2022/01/07 03:22:08;;;;;;;14.50;7.70;;;;;;;1.64;63.72;96811.38;5067761;28;20215;-70
2022/01/07 03:24:34;;;;;;;11.10;6.63;;;;;;;1.37;63.96;96801.19;5065907;28;20178;-70
2022/01/07 03:27:00;;;;;;;12.73;7.20;;;;;;;1.14;64.62;96808.75;5070359;28;20177;-69
2022/01/07 03:29:25;;;;;;;12.07;7.23;;;;;;;1.47;63.82;96806.56;5071423;28;20598;-69
2022/01/07 03:31:51;;;;;;;12.97;6.87;;;;;;;1.42;63.83;96803.44;5066125;28;20223;-70
2022/01/07 03:34:17;;;;;;;11.40;7.33;;;;;;;1.06;65.06;96798.94;5071435;28;20185;-70
2022/01/07 03:36:42;;;;;;;10.53;6.67;;;;;;;1.34;63.73;96793.63;5071004;28;20212;-70
2022/01/07 03:39:08;;;;;;;12.67;7.90;;;;;;;1.29;64.36;96800.88;5070346;28;20185;-68
2022/01/07 03:41:34;;;;;;;11.23;7.13;;;;;;;1.00;65.06;96796.78;5071047;28;20206;-68
2022/01/07 03:44:00;;;;;;;15.87;7.00;;;;;;;0.92;64.89;96799.00;5069925;28;20235;-70
2022/01/07 03:46:25;;;;;;;14.17;7.10;;;;;;;1.16;64.62;96800.88;5070565;28;20427;-70
2022/01/07 03:48:51;;;;;;;11.10;6.47;;;;;;;0.82;64.84;96801.38;5071033;28;20243;-68
2022/01/07 03:51:16;;;;;;;15.90;7.30;;;;;;;1.30;64.33;96797.38;5070626;28;20197;-70
2022/01/07 03:53:42;;;;;;;14.50;7.40;;;;;;;1.09;64.58;96794.50;5065453;28;20185;-70
2022/01/07 03:56:11;;;;;;;12.57;7.30;;;;;;;0.84;64.95;96793.53;5070930;28;20197;-70
2022/01/07 03:58:37;;;;;;;11.60;7.20;;;;;;;0.61;65.95;96801.88;5069454;28;20223;-70
2022/01/07 04:01:03;;;;;;;11.50;6.77;;;;;;;0.75;65.36;96794.97;5069763;28;20468;-70
2022/01/07 04:03:29;;;;;;;10.40;7.13;;;;;;;0.90;64.97;96793.13;5069745;28;20447;-68
2022/01/07 04:05:55;;;;;;;16.30;7.97;;;;;;;0.64;66.16;96790.50;5070647;28;20439;-67
2022/01/07 04:08:20;;;;;;;13.93;7.57;;;;;;;0.99;64.47;96795.13;5070850;28;20428;-71
2022/01/07 04:10:46;;;;;;;11.70;7.37;;;;;;;0.97;65.05;96804.72;5061709;28;20194;-70
2022/01/07 04:13:12;;;;;;;11.73;7.57;;;;;;;0.96;64.86;96794.47;5069733;28;20208;-69
2022/01/07 04:15:37;;;;;;;17.40;8.00;;;;;;;0.75;65.61;96794.97;5071046;28;20179;-70
2022/01/07 04:18:03;;;;;;;11.27;6.60;;;;;;;1.16;63.80;96803.47;5069749;28;20273;-70
2022/01/07 04:20:32;;;;;;;13.97;7.50;;;;;;;0.59;65.48;96795.16;5069399;28;20261;-69
2022/01/07 04:22:58;;;;;;;16.27;8.10;;;;;;;0.84;64.68;96788.38;5060250;28;20589;-71
2022/01/07 04:25:24;;;;;;;14.93;7.40;;;;;;;0.93;64.43;96795.50;5070882;28;20634;-69
2022/01/07 04:27:57;;;;;;;12.10;7.40;;;;;;;1.01;64.16;96795.00;5070945;28;20421;-71
2022/01/07 04:30:23;;;;;;;11.80;8.13;;;;;;;0.93;64.35;96805.84;5052220;28;20430;-69
2022/01/07 04:32:49;;;;;;;13.80;7.23;;;;;;;0.93;64.71;96797.28;5068568;28;20451;-68
2022/01/07 04:35:16;;;;;;;13.80;7.70;;;;;;;0.81;64.85;96806.66;5083234;28;20508;-68
2022/01/07 04:37:42;;;;;;;14.20;9.00;;;;;;;0.51;65.93;96805.13;5079134;28;20417;-70
2022/01/07 04:40:10;;;;;;;13.33;7.73;;;;;;;0.61;65.63;96798.47;5084883;28;20424;-70
2022/01/07 04:42:36;;;;;;;15.03;7.70;;;;;;;0.65;65.47;96807.63;5057220;28;20210;-69
2022/01/07 04:45:06;;;;;;;10.90;7.80;;;;;;;0.74;65.53;96807.06;5076879;28;20813;-70
2022/01/07 04:47:32;;;;;;;14.20;8.67;;;;;;;0.96;64.85;96803.06;5054291;28;20946;-70
2022/01/07 04:49:57;;;;;;;14.20;8.10;;;;;;;1.05;64.75;96806.78;5054556;28;20425;-68
2022/01/07 04:52:23;;;;;;;15.40;8.70;;;;;;;0.84;65.21;96799.53;5054394;28;20482;-71
2022/01/07 04:54:49;;;;;;;15.53;8.30;;;;;;;0.29;66.87;96816.81;5054400;28;20437;-70
2022/01/07 04:57:14;;;;;;;18.70;9.57;;;;;;;0.64;66.69;96806.00;5052950;28;20646;-70
2022/01/07 04:59:40;;;;;;;16.60;8.57;;;;;;;0.53;66.92;96808.44;5052967;28;20179;-69
2022/01/07 05:02:06;;;;;;;17.10;9.23;;;;;;;0.65;66.68;96807.63;5053338;28;20238;-69
2022/01/07 05:04:32;;;;;;;16.87;8.53;;;;;;;0.67;66.50;96810.13;5053768;28;20258;-69
2022/01/07 05:06:57;;;;;;;16.63;9.00;;;;;;;-0.07;69.19;96821.66;5061717;28;20837;-68
2022/01/07 05:09:23;;;;;;;14.23;8.47;;;;;;;0.44;67.72;96810.69;5053148;28;20579;-70
2022/01/07 05:11:51;;;;;;;20.07;8.97;;;;;;;0.71;67.12;96816.72;5053373;28;20291;-70
2022/01/07 05:14:17;;;;;;;21.07;8.70;;;;;;;0.55;67.29;96806.59;5053717;28;20597;-70
2022/01/07 05:16:43;;;;;;;15.73;9.00;;;;;;;0.78;66.28;96807.69;5053212;28;20542;-71
2022/01/07 05:19:09;;;;;;;24.40;11.73;;;;;;;1.01;65.88;96807.91;5051580;28;20513;-70
2022/01/07 05:21:36;;;;;;;17.80;9.80;;;;;;;0.90;66.27;96809.44;5053438;28;20203;-70
2022/01/07 05:24:02;;;;;;;19.53;9.80;;;;;;;0.79;66.46;96805.91;5055465;28;20433;-70
2022/01/07 05:26:28;;;;;;;18.97;9.93;;;;;;;0.80;66.04;96805.84;5051868;28;20426;-70
2022/01/07 05:28:53;;;;;;;14.20;8.47;;;;;;;0.72;66.84;96803.75;5053271;28;20452;-69
2022/01/07 05:31:22;;;;;;;16.93;8.90;;;;;;;0.76;66.76;96804.38;5052137;28;20562;-69
2022/01/07 05:33:48;;;;;;;18.47;10.20;;;;;;;0.67;67.02;96810.94;5047596;28;20217;-70
2022/01/07 05:36:13;;;;;;;15.07;8.30;;;;;;;0.99;66.70;96810.59;5052464;28;20461;-70
2022/01/07 05:38:39;;;;;;;17.87;9.50;;;;;;;1.07;66.31;96805.75;5051770;28;20270;-71
2022/01/07 05:41:04;;;;;;;40.23;17.03;;;;;;;0.97;66.77;96799.56;5052284;28;20286;-70
2022/01/07 05:43:30;;;;;;;16.90;10.63;;;;;;;1.01;66.24;96798.41;5053879;28;20540;-70
2022/01/07 05:45:56;;;;;;;18.20;9.33;;;;;;;1.01;66.63;96787.25;5034718;28;20290;-69
2022/01/07 05:48:23;;;;;;;20.77;10.30;;;;;;;1.01;66.23;96792.41;5059402;28;20186;-69
2022/01/07 05:50:49;;;;;;;16.83;9.87;;;;;;;0.99;66.63;96783.94;5050071;28;21053;-70
2022/01/07 05:53:14;;;;;;;14.40;9.47;;;;;;;1.12;66.55;96782.19;5052579;28;21160;-69
2022/01/07 05:55:40;;;;;;;19.10;9.83;;;;;;;1.15;66.30;96788.91;5052253;28;21159;-70
2022/01/07 05:58:05;;;;;;;17.30;8.97;;;;;;;1.19;66.89;96780.88;5051840;28;20265;-68
2022/01/07 06:00:31;;;;;;;18.37;9.40;;;;;;;1.13;66.29;96785.63;5051734;28;20252;-70
2022/01/07 06:02:56;;;;;;;16.50;9.20;;;;;;;1.32;66.47;96786.00;5053269;28;20179;-70
2022/01/07 06:05:22;;;;;;;23.00;11.20;;;;;;;1.40;66.09;96782.06;5060128;28;20219;-70
2022/01/07 06:07:48;;;;;;;21.80;10.23;;;;;;;1.17;67.05;96777.56;5052531;28;20187;-70
2022/01/07 06:10:13;;;;;;;22.07;10.53;;;;;;;1.31;66.41;96779.19;5051896;28;20620;-70
2022/01/07 06:12:39;;;;;;;16.83;9.47;;;;;;;1.21;66.60;96778.97;5053871;28;20191;-68
2022/01/07 06:15:06;;;;;;;17.93;9.70;;;;;;;0.90;67.83;96785.38;5051051;28;20643;-70
2022/01/07 06:17:31;;;;;;;17.60;10.27;;;;;;;1.23;66.80;96777.13;5051200;28;20189;-70
2022/01/07 06:19:57;;;;;;;16.60;9.40;;;;;;;1.16;66.93;96775.06;5051774;28;20425;-70
2022/01/07 06:22:23;;;;;;;19.10;10.47;;;;;;;1.30;66.46;96782.69;5059710;28;20297;-70
2022/01/07 06:24:48;;;;;;;17.27;10.93;;;;;;;0.87;68.33;96777.88;5056789;28;20187;-70
2022/01/07 06:27:14;;;;;;;19.50;10.00;;;;;;;1.02;67.61;96779.41;5069310;28;20675;-69
2022/01/07 06:29:39;;;;;;;20.30;10.47;;;;;;;1.10;67.08;96776.31;5066191;28;20270;-71
2022/01/07 06:32:06;;;;;;;17.67;11.03;;;;;;;1.14;67.55;96776.91;5063163;28;20542;-69
2022/01/07 06:34:32;;;;;;;18.20;10.50;;;;;;;1.35;66.54;96780.63;5053565;28;20183;-70
2022/01/07 06:37:01;;;;;;;15.00;9.67;;;;;;;1.28;66.37;96781.97;5062113;28;20425;-71
2022/01/07 06:39:29;;;;;;;18.47;10.50;;;;;;;1.38;66.14;96779.59;5054364;28;20183;-69
2022/01/07 06:41:55;;;;;;;16.77;9.17;;;;;;;1.45;66.41;96767.91;5053925;28;20461;-66
2022/01/07 06:44:21;;;;;;;17.00;10.47;;;;;;;1.17;66.63;96768.97;5052734;28;20507;-70
2022/01/07 06:46:46;;;;;;;22.77;12.83;;;;;;;1.18;66.97;96775.78;5053796;28;20433;-71
2022/01/07 06:49:13;;;;;;;18.60;10.70;;;;;;;1.48;66.31;96769.47;5054732;28;20429;-70
2022/01/07 06:51:40;;;;;;;21.13;11.30;;;;;;;1.58;65.64;96770.47;5058482;28;20209;-72
2022/01/07 06:54:07;;;;;;;18.07;10.20;;;;;;;1.58;65.70;96774.81;5053606;28;20536;-70
2022/01/07 06:56:34;;;;;;;21.50;10.53;;;;;;;1.73;65.29;96770.34;5055241;28;20437;-70
2022/01/07 06:58:59;;;;;;;20.30;11.30;;;;;;;1.51;66.15;96769.25;5056544;28;20854;-69
2022/01/07 07:01:27;;;;;;;18.30;10.37;;;;;;;1.66;65.42;96768.16;5077204;28;20455;-70
2022/01/07 07:03:53;;;;;;;20.13;10.03;;;;;;;1.65;65.65;96766.53;5082106;28;20242;-70
2022/01/07 07:06:19;;;;;;;19.43;11.00;;;;;;;1.33;66.20;96771.31;5079702;28;20472;-69
2022/01/07 07:08:44;;;;;;;21.23;10.37;;;;;;;1.60;65.65;96771.19;5060359;28;20182;-71
2022/01/07 07:11:10;;;;;;;16.67;10.43;;;;;;;1.29;66.55;96765.56;5062733;28;20199;-69
2022/01/07 07:13:35;;;;;;;17.93;9.77;;;;;;;1.71;65.80;96764.44;5058650;28;20650;-70
2022/01/07 07:16:01;;;;;;;17.70;8.40;;;;;;;1.71;65.27;96754.94;5069243;28;20192;-71
2022/01/07 07:18:27;;;;;;;16.07;9.10;;;;;;;1.43;65.85;96751.72;5072256;28;20192;-69
2022/01/07 07:20:53;;;;;;;13.50;9.30;;;;;;;1.65;65.02;96745.03;5071790;28;20460;-70
2022/01/07 07:23:20;;;;;;;21.43;10.20;;;;;;;1.64;65.73;96739.03;5065151;28;20632;-70
2022/01/07 07:25:45;;;;;;;14.23;9.23;;;;;;;1.68;65.48;96740.47;5066957;28;20182;-70
2022/01/07 07:28:11;;;;;;;17.27;9.90;;;;;;;1.41;65.47;96743.25;5070494;28;20432;-69
2022/01/07 07:30:39;;;;;;;19.00;11.03;;;;;;;1.45;65.82;96741.25;5066309;28;20230;-69
2022/01/07 07:38:35;;;;;;;16.97;9.03;;;;;;;2.09;64.47;96729.88;5071464;28;20515;-69
2022/01/07 07:41:00;;;;;;;19.03;10.70;;;;;;;2.27;63.63;96733.69;5063014;28;20448;-70
2022/01/07 07:43:26;;;;;;;16.87;9.50;;;;;;;2.29;63.34;96728.44;5070318;28;20950;-71
2022/01/07 07:45:52;;;;;;;17.53;9.67;;;;;;;2.23;63.28;96732.28;5062856;28;20193;-69
2022/01/07 07:48:18;;;;;;;15.60;9.97;;;;;;;2.33;63.11;96729.03;5069825;28;20430;-70
2022/01/07 07:50:44;;;;;;;16.10;8.97;;;;;;;2.17;63.27;96737.91;5070088;28;20907;-70
2022/01/07 07:53:09;;;;;;;16.20;9.27;;;;;;;2.21;63.23;96730.72;5071155;28;20190;-70
2022/01/07 07:55:35;;;;;;;14.30;8.80;;;;;;;2.33;62.61;96724.69;5071220;28;20244;-70
2022/01/07 07:58:01;;;;;;;18.13;10.00;;;;;;;2.30;62.56;96719.75;5062834;28;20616;-70
2022/01/07 08:00:26;;;;;;;17.73;9.93;;;;;;;2.34;62.94;96715.97;5068318;28;20206;-70
2022/01/07 08:02:52;;;;;;;16.57;9.83;;;;;;;2.27;63.00;96725.13;5070550;28;20627;-70
2022/01/07 08:05:17;;;;;;;16.40;9.17;;;;;;;2.06;63.27;96717.16;5069303;28;20246;-70
2022/01/07 08:07:43;;;;;;;19.27;9.47;;;;;;;2.29;63.21;96721.50;5071570;28;20183;-71
2022/01/07 08:10:09;;;;;;;19.80;10.97;;;;;;;2.32;63.20;96722.19;5071245;28;20194;-68
2022/01/07 08:12:53;;;;;;;14.00;8.97;;;;;;;2.47;62.60;96726.25;5071474;28;20213;-69
2022/01/07 08:18:03;;;;;;;16.90;9.57;;;;;;;2.50;62.51;96717.44;5075528;28;20420;-69
2022/01/07 08:20:29;;;;;;;20.73;11.37;;;;;;;2.42;62.69;96718.00;5073771;28;20425;-70
2022/01/07 08:22:56;;;;;;;14.33;8.83;;;;;;;2.32;62.96;96706.69;5068625;28;20663;-69
2022/01/07 08:25:23;;;;;;;15.53;9.50;;;;;;;2.17;63.11;96700.88;5072959;28;20232;-70
2022/01/07 08:27:50;;;;;;;14.33;8.67;;;;;;;2.63;62.49;96702.66;5075293;28;20440;-71
2022/01/07 08:30:22;;;;;;;18.80;9.80;;;;;;;2.42;62.26;96692.13;5071667;28;20416;-70
2022/01/07 08:35:35;;;;;;;12.40;8.73;;;;;;;2.31;62.67;96690.34;5057519;28;20409;-70
2022/01/07 08:38:01;;;;;;;16.30;9.50;;;;;;;2.64;62.21;96688.78;5064869;28;20425;-68
2022/01/07 08:40:26;;;;;;;15.17;9.30;;;;;;;2.68;62.31;96687.63;5064307;28;20458;-71
2022/01/07 08:42:52;;;;;;;16.73;9.20;;;;;;;2.67;61.78;96685.13;5074760;28;20707;-72
2022/01/07 08:45:18;;;;;;;17.50;10.47;;;;;;;2.61;61.98;96687.25;5074617;28;20178;-70
2022/01/07 08:47:43;;;;;;;17.50;10.80;;;;;;;2.59;62.29;96694.28;5074518;28;20186;-69
2022/01/07 08:50:09;;;;;;;18.17;10.47;;;;;;;2.64;62.27;96690.56;5066641;28;20178;-71
2022/01/07 08:52:34;;;;;;;21.80;10.57;;;;;;;2.79;62.07;96689.38;5075307;28;20734;-70
2022/01/07 08:55:00;;;;;;;19.57;9.87;;;;;;;2.56;62.60;96681.59;5074827;28;20189;-70
2022/01/07 08:57:25;;;;;;;17.50;9.40;;;;;;;2.64;61.88;96690.56;5075279;28;20183;-69
2022/01/07 08:59:52;;;;;;;16.80;8.90;;;;;;;2.83;61.29;96688.22;5070345;28;20213;-70
2022/01/07 09:02:18;;;;;;;16.23;9.60;;;;;;;2.71;61.71;96694.31;5072163;28;20573;-70
2022/01/07 09:04:43;;;;;;;18.97;10.63;;;;;;;2.80;61.49;96691.03;5067626;28;20417;-71
2022/01/07 09:07:09;;;;;;;31.17;9.37;;;;;;;2.80;61.64;96685.03;5056172;28;20437;-71
2022/01/07 09:09:35;;;;;;;18.53;10.50;;;;;;;3.10;61.21;96687.03;5067131;28;20190;-70
2022/01/07 09:12:00;;;;;;;15.50;9.17;;;;;;;3.32;60.63;96685.38;5073837;28;20195;-69
2022/01/07 09:14:26;;;;;;;12.50;8.43;;;;;;;3.07;60.72;96690.69;5072975;28;20218;-69
2022/01/07 09:16:52;;;;;;;15.90;8.93;;;;;;;3.10;60.42;96687.03;5075042;28;20182;-68
2022/01/07 09:19:18;;;;;;;14.70;8.90;;;;;;;3.12;60.63;96689.50;5071449;28;20178;-70
2022/01/07 09:21:44;;;;;;;19.83;9.60;;;;;;;2.99;61.25;96685.25;5071685;28;20242;-70
2022/01/07 09:24:09;;;;;;;15.70;8.17;;;;;;;3.19;60.35;96680.34;5072454;28;20990;-72
2022/01/07 09:26:35;;;;;;;16.57;10.00;;;;;;;3.23;59.99;96687.75;5071080;28;20270;-68
2022/01/07 09:29:00;;;;;;;13.83;8.57;;;;;;;3.66;59.22;96688.72;5069222;28;20195;-69
2022/01/07 09:31:26;;;;;;;16.97;8.83;;;;;;;3.01;60.13;96688.56;5072379;28;20202;-70
2022/01/07 09:33:52;;;;;;;24.77;13.37;;;;;;;3.34;59.61;96667.94;5070503;28;20186;-70
2022/01/07 09:36:17;;;;;;;13.57;8.77;;;;;;;3.15;60.26;96671.94;5073107;28;20178;-70
2022/01/07 09:38:43;;;;;;;15.83;9.00;;;;;;;3.53;59.55;96678.50;5071737;28;20174;-69
2022/01/07 09:41:08;;;;;;;13.20;8.60;;;;;;;3.19;60.04;96673.38;5072352;28;20296;-69
2022/01/07 09:43:34;;;;;;;14.40;8.40;;;;;;;3.67;59.24;96672.25;5073367;28;20209;-69
2022/01/07 09:46:00;;;;;;;17.13;8.70;;;;;;;3.42;59.90;96670.75;5072354;28;20588;-69
2022/01/07 09:48:25;;;;;;;13.57;8.17;;;;;;;3.54;59.00;96658.59;5057918;28;20210;-70
2022/01/07 09:50:51;;;;;;;14.90;8.87;;;;;;;3.62;59.52;96663.19;5073384;28;20284;-70
2022/01/07 09:53:17;;;;;;;15.13;9.50;;;;;;;3.31;59.81;96657.81;5073003;28;20185;-70
2022/01/07 09:55:44;;;;;;;14.37;8.70;;;;;;;3.10;60.88;96655.97;5072271;28;20186;-70
2022/01/07 09:58:10;;;;;;;14.23;8.77;;;;;;;3.39;60.43;96650.28;5072115;28;20569;-70
2022/01/07 10:00:41;;;;;;;13.73;7.40;;;;;;;3.51;60.33;96641.53;5068527;28;20459;-69
2022/01/07 10:03:11;;;;;;;13.70;8.20;;;;;;;3.30;60.31;96651.81;5073450;28;20529;-70
2022/01/07 10:05:55;;;;;;;13.67;7.83;;;;;;;3.40;60.02;96645.91;5072833;28;20764;-70
2022/01/07 10:08:28;;;;;;;15.37;8.90;;;;;;;3.37;60.58;96637.44;5073147;28;20413;-70
2022/01/07 10:11:11;;;;;;;14.90;8.60;;;;;;;3.27;61.01;96636.53;5061867;28;20547;-70
2022/01/07 10:13:37;;;;;;;14.17;9.20;;;;;;;3.12;62.52;96642.88;5052931;28;20428;-69
2022/01/07 10:16:22;;;;;;;14.80;8.47;;;;;;;3.36;62.24;96637.56;5063834;28;20420;-70
2022/01/07 10:18:49;;;;;;;18.90;10.00;;;;;;;3.26;62.56;96631.47;5072490;28;20189;-68
2022/01/07 10:21:16;;;;;;;13.90;8.37;;;;;;;3.37;63.15;96626.25;5072637;28;20460;-69
2022/01/07 10:23:43;;;;;;;14.23;8.63;;;;;;;3.54;62.77;96623.13;5069077;28;20780;-71
2022/01/07 10:26:19;;;;;;;13.63;8.60;;;;;;;3.43;63.26;96628.34;5072456;28;20428;-69
2022/01/07 10:28:47;;;;;;;19.43;8.70;;;;;;;3.44;63.78;96619.63;5071815;28;20809;-70
2022/01/07 10:31:23;;;;;;;14.20;8.60;;;;;;;3.19;64.47;96621.56;5071421;28;20455;-69
2022/01/07 10:33:49;;;;;;;12.17;7.93;;;;;;;2.99;64.50;96615.38;5064296;28;20424;-69
2022/01/07 10:36:24;;;;;;;13.60;8.83;;;;;;;3.07;65.44;96609.59;5063913;28;20429;-68
2022/01/07 10:38:49;;;;;;;12.83;8.20;;;;;;;3.27;64.72;96609.81;5071478;28;20537;-70
2022/01/07 10:41:15;;;;;;;14.50;8.83;;;;;;;3.03;65.39;96608.19;5072318;28;20575;-70
2022/01/07 10:43:41;;;;;;;19.43;9.30;;;;;;;3.17;65.48;96607.91;5074589;28;20178;-68
2022/01/07 10:46:14;;;;;;;15.63;9.07;;;;;;;3.10;65.34;96608.53;5072920;28;20274;-68
2022/01/07 10:48:43;;;;;;;19.57;10.30;;;;;;;3.00;66.00;96608.44;5082926;28;20239;-69
2022/01/07 10:51:13;;;;;;;21.67;11.80;;;;;;;2.89;66.39;96606.66;5066145;28;20453;-69
2022/01/07 10:53:39;;;;;;;21.33;11.03;;;;;;;3.44;65.08;96600.69;5081306;28;20512;-69
2022/01/07 10:56:19;;;;;;;22.47;13.07;;;;;;;3.22;65.79;96612.72;5076628;28;20441;-70
2022/01/07 10:58:44;;;;;;;16.63;9.47;;;;;;;3.33;65.25;96593.75;5062318;28;20256;-70
2022/01/07 11:01:19;;;;;;;18.30;9.77;;;;;;;3.33;65.31;96591.19;5058989;28;20589;-70
2022/01/07 11:03:49;;;;;;;19.43;10.90;;;;;;;3.58;64.76;96590.06;5067046;28;20594;-69
2022/01/07 11:06:15;;;;;;;16.83;10.43;;;;;;;3.59;64.15;96593.44;5072664;28;20863;-70
2022/01/07 11:08:41;;;;;;;17.83;10.17;;;;;;;3.51;64.79;96576.78;5072211;28;20491;-70
2022/01/07 11:11:08;;;;;;;16.63;9.60;;;;;;;3.46;64.77;96581.47;5072339;28;20449;-69
2022/01/07 11:13:35;;;;;;;16.63;9.83;;;;;;;3.27;65.37;96591.69;5072196;28;20486;-68
2022/01/07 11:16:02;;;;;;;15.80;9.07;;;;;;;3.48;65.38;96581.34;5071336;28;20428;-69
2022/01/07 11:18:28;;;;;;;22.87;9.90;;;;;;;3.49;65.40;96578.66;5070155;28;20420;-69
2022/01/07 11:20:58;;;;;;;19.50;11.00;;;;;;;3.35;65.59;96571.16;5063210;28;20452;-71
2022/01/07 11:23:27;;;;;;;27.13;18.30;;;;;;;3.62;65.61;96567.28;5062983;28;20182;-70
2022/01/07 11:26:09;;;;;;;14.17;8.63;;;;;;;3.62;65.35;96575.88;5072792;28;20520;-69
2022/01/07 11:28:36;;;;;;;19.77;10.33;;;;;;;3.64;65.77;96574.00;5054270;28;20832;-70
2022/01/07 11:31:14;;;;;;;14.60;9.30;;;;;;;3.65;66.11;96569.66;5069237;28;20494;-70
2022/01/07 11:33:40;;;;;;;17.40;9.80;;;;;;;4.00;64.78;96571.13;5065921;28;20432;-69
2022/01/07 11:36:10;;;;;;;21.93;10.00;;;;;;;3.94;64.96;96562.06;5071504;28;20504;-69
2022/01/07 11:38:45;;;;;;;13.90;8.70;;;;;;;4.06;64.76;96556.81;5071000;28;20470;-71
2022/01/07 11:41:13;;;;;;;13.47;8.70;;;;;;;4.28;63.63;96564.44;5071550;28;20570;-69